Time;durP1;ratioP1;P1;durP2;ratioP2;P2;SDS_P1;SDS_P2;PMS_P1;PMS_P2;Temp;Humidity;BMP_temperature;BMP_pressure;BME280_temperature;BME280_humidity;BME280_pressure;Samples;Min_cycle;Max_cycle;Signal;HPM_P1;HPM_P2
2023/03/14 00:01:31;;;;;;;24.80;5.53;;;;;;;;;;5045385;28;20685;-75
2023/03/14 00:03:56;;;;;;;28.63;6.27;;;;;;;;;;5046985;28;20206;-73
2023/03/14 00:06:22;;;;;;;21.33;6.03;;;;;;;;;;5052951;28;20642;-75
2023/03/14 00:08:48;;;;;;;23.80;5.70;;;;;;;;;;5048401;28;20186;-73
2023/03/14 00:11:14;;;;;;;20.63;5.80;;;;;;;;;;5048432;28;20844;-73
2023/03/14 00:13:40;;;;;;;37.97;5.77;;;;;;;;;;5048222;28;20210;-73
2023/03/14 00:16:06;;;;;;;20.67;5.50;;;;;;;;;;5044003;28;20945;-74
2023/03/14 00:18:32;;;;;;;20.43;5.37;;;;;;;;;;5043809;28;20195;-74
2023/03/14 00:20:58;;;;;;;21.93;6.20;;;;;;;;;;5047784;28;20433;-74
2023/03/14 00:23:23;;;;;;;19.40;5.50;;;;;;;;;;5051797;28;20682;-73
2023/03/14 00:25:48;;;;;;;26.03;6.40;;;;;;;;;;5052365;28;20457;-73
2023/03/14 00:28:14;;;;;;;19.13;4.93;;;;;;;;;;5055934;28;20192;-73
2023/03/14 00:30:39;;;;;;;25.13;5.57;;;;;;;;;;5052546;28;20207;-74
2023/03/14 00:33:04;;;;;;;19.33;5.00;;;;;;;;;;5057393;28;21137;-73
2023/03/14 00:35:29;;;;;;;23.10;5.40;;;;;;;;;;5057594;28;20206;-74
2023/03/14 00:37:55;;;;;;;23.30;6.07;;;;;;;;;;5057751;28;20228;-74
2023/03/14 00:40:20;;;;;;;22.87;6.03;;;;;;;;;;5056924;28;20180;-73
2023/03/14 00:42:45;;;;;;;22.43;6.43;;;;;;;;;;5057579;28;20214;-72
2023/03/14 00:45:10;;;;;;;20.03;5.40;;;;;;;;;;5059261;28;20179;-73
2023/03/14 00:47:36;;;;;;;26.80;6.37;;;;;;;;;;5053956;28;20752;-73
2023/03/14 00:50:01;;;;;;;19.73;5.33;;;;;;;;;;5055938;28;20171;-74
2023/03/14 00:52:26;;;;;;;26.13;5.00;;;;;;;;;;5051826;28;20273;-73
2023/03/14 00:54:52;;;;;;;25.53;5.10;;;;;;;;;;5049973;28;20230;-75
2023/03/14 00:57:17;;;;;;;21.23;4.83;;;;;;;;;;5050653;28;20725;-73
2023/03/14 00:59:42;;;;;;;20.73;4.10;;;;;;;;;;5050000;28;25064;-73
2023/03/14 01:02:07;;;;;;;21.40;4.90;;;;;;;;;;5047638;28;20737;-75
2023/03/14 01:04:33;;;;;;;19.90;4.83;;;;;;;;;;5044684;28;20196;-74
2023/03/14 01:06:58;;;;;;;24.37;4.73;;;;;;;;;;5048890;28;20685;-75
2023/03/14 01:09:23;;;;;;;17.43;4.97;;;;;;;;;;5051635;28;20168;-76
2023/03/14 01:11:49;;;;;;;20.90;4.73;;;;;;;;;;5050911;28;20700;-74
2023/03/14 01:14:14;;;;;;;26.13;5.27;;;;;;;;;;5052819;28;20239;-73
2023/03/14 01:16:39;;;;;;;18.67;4.80;;;;;;;;;;5047733;28;20553;-74
2023/03/14 01:19:04;;;;;;;30.23;6.00;;;;;;;;;;5043249;28;20223;-74
2023/03/14 01:21:34;;;;;;;19.07;3.77;;;;;;;;;;5043962;28;20207;-74
2023/03/14 01:24:00;;;;;;;25.50;6.80;;;;;;;;;;5039345;28;20234;-73
2023/03/14 01:26:26;;;;;;;16.60;3.83;;;;;;;;;;5048348;28;20437;-75
2023/03/14 01:28:53;;;;;;;22.60;5.33;;;;;;;;;;5050799;28;20721;-74
2023/03/14 01:31:18;;;;;;;18.30;5.10;;;;;;;;;;5051886;28;20813;-73
2023/03/14 01:33:44;;;;;;;19.20;5.30;;;;;;;;;;5054077;28;20521;-74
2023/03/14 01:36:10;;;;;;;21.27;4.77;;;;;;;;;;5053704;28;20187;-74
2023/03/14 01:38:36;;;;;;;17.63;5.13;;;;;;;;;;5052553;28;20416;-75
2023/03/14 01:41:02;;;;;;;20.77;4.70;;;;;;;;;;5055559;28;20600;-73
2023/03/14 01:43:27;;;;;;;20.83;4.57;;;;;;;;;;5057413;28;20461;-73
2023/03/14 01:46:04;;;;;;;21.27;4.53;;;;;;;;;;5057514;28;20187;-75
2023/03/14 01:48:38;;;;;;;27.00;6.27;;;;;;;;;;5051644;28;20263;-74
2023/03/14 01:51:04;;;;;;;14.90;4.07;;;;;;;;;;5055978;28;20495;-74
2023/03/14 01:53:29;;;;;;;17.37;4.10;;;;;;;;;;5044733;28;20438;-76
2023/03/14 01:55:56;;;;;;;14.03;4.10;;;;;;;;;;5038085;28;20462;-74
2023/03/14 01:58:22;;;;;;;18.43;4.93;;;;;;;;;;5054295;28;20197;-74
2023/03/14 02:00:47;;;;;;;19.33;4.50;;;;;;;;;;5050338;28;20434;-74
2023/03/14 02:03:16;;;;;;;15.57;4.33;;;;;;;;;;5040743;28;20476;-74
2023/03/14 02:05:41;;;;;;;13.50;4.57;;;;;;;;;;5037299;28;20191;-75
2023/03/14 02:08:09;;;;;;;24.00;5.03;;;;;;;;;;5036766;28;20479;-74
2023/03/14 02:10:42;;;;;;;21.03;4.37;;;;;;;;;;5038964;28;20544;-74
2023/03/14 02:13:07;;;;;;;16.47;4.40;;;;;;;;;;5051952;28;20441;-76
2023/03/14 02:15:33;;;;;;;10.70;3.83;;;;;;;;;;5037924;28;20430;-74
2023/03/14 02:17:58;;;;;;;17.63;4.60;;;;;;;;;;5037951;28;20697;-74
2023/03/14 02:20:29;;;;;;;15.57;4.20;;;;;;;;;;5033506;28;20266;-74
2023/03/14 02:22:55;;;;;;;15.00;4.97;;;;;;;;;;5043244;28;20688;-74
2023/03/14 02:25:20;;;;;;;16.43;3.93;;;;;;;;;;5049464;28;20425;-76
2023/03/14 02:27:46;;;;;;;17.30;4.70;;;;;;;;;;5044971;28;20204;-74
2023/03/14 02:30:14;;;;;;;22.17;4.40;;;;;;;;;;5039192;28;20176;-75
2023/03/14 02:32:41;;;;;;;17.77;4.13;;;;;;;;;;5035398;28;20580;-74
2023/03/14 02:35:09;;;;;;;18.33;4.23;;;;;;;;;;5034239;28;20432;-74
2023/03/14 02:37:48;;;;;;;16.73;3.60;;;;;;;;;;5031823;28;20432;-76
2023/03/14 02:40:14;;;;;;;18.90;3.63;;;;;;;;;;5037051;28;20440;-73
2023/03/14 02:42:39;;;;;;;16.83;3.13;;;;;;;;;;5035257;28;20479;-75
2023/03/14 02:45:04;;;;;;;15.23;3.67;;;;;;;;;;5044865;28;20266;-75
2023/03/14 02:47:30;;;;;;;13.00;3.07;;;;;;;;;;5043487;28;20179;-75
2023/03/14 02:50:08;;;;;;;16.43;4.23;;;;;;;;;;5043973;28;20174;-74
2023/03/14 02:52:33;;;;;;;13.80;3.27;;;;;;;;;;5044997;28;20212;-74
2023/03/14 02:54:58;;;;;;;10.40;3.00;;;;;;;;;;5039591;28;20442;-74
2023/03/14 02:57:24;;;;;;;14.83;2.80;;;;;;;;;;5033344;28;20194;-75
2023/03/14 02:59:49;;;;;;;15.20;3.60;;;;;;;;;;5043735;28;25064;-74
2023/03/14 03:02:14;;;;;;;16.77;3.23;;;;;;;;;;5037338;28;21616;-74
2023/03/14 03:04:39;;;;;;;12.23;2.90;;;;;;;;;;5037459;28;22728;-74
2023/03/14 03:07:05;;;;;;;13.87;2.97;;;;;;;;;;5042215;28;20229;-74
2023/03/14 03:09:30;;;;;;;17.63;3.50;;;;;;;;;;5040502;28;20202;-74
2023/03/14 03:11:55;;;;;;;13.07;2.47;;;;;;;;;;5034982;28;20936;-73
2023/03/14 03:14:21;;;;;;;8.07;1.97;;;;;;;;;;5041135;28;20224;-74
2023/03/14 03:16:46;;;;;;;16.57;3.50;;;;;;;;;;5035231;28;20725;-74
2023/03/14 03:19:13;;;;;;;11.67;2.70;;;;;;;;;;5035375;28;20179;-74
2023/03/14 03:21:38;;;;;;;7.50;2.17;;;;;;;;;;5037283;28;20839;-73
2023/03/14 03:24:03;;;;;;;8.57;2.57;;;;;;;;;;5038800;28;20464;-73
2023/03/14 03:26:29;;;;;;;10.23;3.10;;;;;;;;;;5035404;28;20442;-73
2023/03/14 03:28:54;;;;;;;14.00;2.73;;;;;;;;;;5043886;28;20223;-74
2023/03/14 03:31:19;;;;;;;9.73;2.80;;;;;;;;;;5044464;28;20298;-75
2023/03/14 03:33:45;;;;;;;12.57;3.20;;;;;;;;;;5049758;28;25077;-74
2023/03/14 03:36:10;;;;;;;9.30;2.33;;;;;;;;;;5055053;28;20183;-74
2023/03/14 03:38:35;;;;;;;11.20;2.40;;;;;;;;;;5055171;28;20646;-74
2023/03/14 03:41:05;;;;;;;6.10;1.80;;;;;;;;;;5055251;28;20183;-74
2023/03/14 03:43:30;;;;;;;12.60;2.90;;;;;;;;;;5059863;28;20270;-74
2023/03/14 03:45:55;;;;;;;5.90;1.80;;;;;;;;;;5058376;28;21023;-74
2023/03/14 03:48:21;;;;;;;11.97;2.80;;;;;;;;;;5058271;28;20187;-74
2023/03/14 03:50:47;;;;;;;7.63;2.13;;;;;;;;;;5053235;28;20172;-74
2023/03/14 03:53:12;;;;;;;9.40;2.60;;;;;;;;;;5056518;28;20665;-74
2023/03/14 03:55:40;;;;;;;11.03;2.47;;;;;;;;;;5057634;28;20521;-77
2023/03/14 03:58:05;;;;;;;9.27;2.63;;;;;;;;;;5041447;28;20199;-74
2023/03/14 04:00:32;;;;;;;11.63;2.97;;;;;;;;;;5040966;28;20428;-74
2023/03/14 04:02:58;;;;;;;9.77;2.90;;;;;;;;;;5049930;28;20697;-75
2023/03/14 04:05:23;;;;;;;10.57;2.80;;;;;;;;;;5051016;28;20438;-75
2023/03/14 04:07:48;;;;;;;11.40;3.60;;;;;;;;;;5050730;28;20171;-74
2023/03/14 04:10:14;;;;;;;10.53;3.30;;;;;;;;;;5050832;28;20225;-74
2023/03/14 04:12:39;;;;;;;12.50;3.33;;;;;;;;;;5048114;28;20720;-73
2023/03/14 04:15:05;;;;;;;14.93;4.00;;;;;;;;;;5045066;28;23161;-73
2023/03/14 04:17:30;;;;;;;16.33;4.00;;;;;;;;;;5046857;28;20206;-74
2023/03/14 04:19:55;;;;;;;16.87;4.47;;;;;;;;;;5041329;28;20192;-74
2023/03/14 04:22:21;;;;;;;12.10;3.37;;;;;;;;;;5035422;28;20211;-75
2023/03/14 04:24:46;;;;;;;12.93;3.83;;;;;;;;;;5043398;28;20174;-74
2023/03/14 04:27:11;;;;;;;14.03;4.03;;;;;;;;;;5049724;28;20178;-74
2023/03/14 04:29:36;;;;;;;12.37;4.10;;;;;;;;;;5044265;28;20171;-73
2023/03/14 04:32:02;;;;;;;9.07;3.20;;;;;;;;;;5047483;28;20665;-73
2023/03/14 04:34:27;;;;;;;12.47;3.60;;;;;;;;;;5042653;28;20184;-74
2023/03/14 04:36:52;;;;;;;12.07;3.30;;;;;;;;;;5039289;28;20760;-74
2023/03/14 04:39:18;;;;;;;14.33;4.73;;;;;;;;;;5042878;28;20172;-74
2023/03/14 04:41:44;;;;;;;14.60;3.50;;;;;;;;;;5037336;28;20211;-74
2023/03/14 04:44:09;;;;;;;9.20;3.17;;;;;;;;;;5040839;28;20207;-74
2023/03/14 04:46:34;;;;;;;11.90;3.50;;;;;;;;;;5033991;28;20800;-75
2023/03/14 04:48:59;;;;;;;12.63;3.07;;;;;;;;;;5039813;28;20183;-73
2023/03/14 04:51:27;;;;;;;10.57;3.47;;;;;;;;;;5036440;28;20793;-75
2023/03/14 04:53:52;;;;;;;12.73;3.93;;;;;;;;;;5040763;28;20198;-74
2023/03/14 04:56:17;;;;;;;8.90;3.47;;;;;;;;;;5046841;28;20794;-74
2023/03/14 04:58:44;;;;;;;11.27;3.20;;;;;;;;;;5037305;28;20184;-73
2023/03/14 05:01:09;;;;;;;13.90;3.70;;;;;;;;;;5042296;28;20176;-74
2023/03/14 05:03:35;;;;;;;16.73;4.00;;;;;;;;;;5044063;28;20538;-74
2023/03/14 05:06:01;;;;;;;16.03;3.57;;;;;;;;;;5035913;28;20189;-73
2023/03/14 05:08:27;;;;;;;10.33;3.50;;;;;;;;;;5036902;28;25142;-75
2023/03/14 05:10:53;;;;;;;13.93;4.00;;;;;;;;;;5041248;28;20180;-74
2023/03/14 05:13:18;;;;;;;17.07;3.70;;;;;;;;;;5056196;28;20223;-73
2023/03/14 05:15:44;;;;;;;8.10;3.50;;;;;;;;;;5046428;28;20427;-73
2023/03/14 05:18:09;;;;;;;9.87;3.60;;;;;;;;;;5048689;28;20673;-73
2023/03/14 05:20:35;;;;;;;9.63;3.77;;;;;;;;;;5052491;28;20176;-72
2023/03/14 05:23:00;;;;;;;9.20;3.77;;;;;;;;;;5045977;28;20201;-73
2023/03/14 05:25:26;;;;;;;9.93;4.00;;;;;;;;;;5047537;28;20440;-73
2023/03/14 05:27:53;;;;;;;10.10;3.53;;;;;;;;;;5052407;28;20231;-72
2023/03/14 05:30:18;;;;;;;8.57;3.30;;;;;;;;;;5050469;28;20171;-73
2023/03/14 05:32:43;;;;;;;10.00;3.93;;;;;;;;;;5055110;28;20979;-74
2023/03/14 05:35:08;;;;;;;9.80;3.47;;;;;;;;;;5043737;28;20181;-73
2023/03/14 05:37:34;;;;;;;10.47;3.60;;;;;;;;;;5050476;28;20176;-73
2023/03/14 05:39:59;;;;;;;11.87;3.93;;;;;;;;;;5055509;28;20607;-75
2023/03/14 05:42:25;;;;;;;13.00;4.87;;;;;;;;;;5050847;28;20204;-73
2023/03/14 05:44:50;;;;;;;13.97;4.73;;;;;;;;;;5053746;28;20647;-74
2023/03/14 05:47:15;;;;;;;16.07;4.20;;;;;;;;;;5056645;22;20191;-68
2023/03/14 05:49:40;;;;;;;12.00;4.63;;;;;;;;;;5022666;28;20283;-70
2023/03/14 05:52:06;;;;;;;10.27;3.93;;;;;;;;;;5028886;28;20193;-69
2023/03/14 05:54:31;;;;;;;9.30;3.90;;;;;;;;;;5027479;28;20187;-69
2023/03/14 05:56:56;;;;;;;10.47;3.47;;;;;;;;;;5028019;28;20201;-69
2023/03/14 05:59:22;;;;;;;13.77;4.60;;;;;;;;;;5031393;28;20225;-69
2023/03/14 06:01:47;;;;;;;8.97;3.60;;;;;;;;;;5026202;28;20274;-68
2023/03/14 06:04:13;;;;;;;8.77;3.73;;;;;;;;;;5024040;28;20235;-69
2023/03/14 06:06:38;;;;;;;7.97;3.70;;;;;;;;;;5020330;28;20277;-69
2023/03/14 06:09:04;;;;;;;16.30;4.27;;;;;;;;;;5023342;28;20211;-69
2023/03/14 06:11:29;;;;;;;9.30;4.30;;;;;;;;;;5023405;28;20168;-69
2023/03/14 06:13:54;;;;;;;9.33;4.23;;;;;;;;;;5018547;28;20446;-70
2023/03/14 06:16:20;;;;;;;8.57;5.17;;;;;;;;;;5017805;28;20188;-70
2023/03/14 06:18:46;;;;;;;12.70;4.13;;;;;;;;;;5025182;28;20351;-69
2023/03/14 06:21:12;;;;;;;15.90;4.40;;;;;;;;;;5029810;28;20218;-69
2023/03/14 06:23:37;;;;;;;12.17;5.70;;;;;;;;;;5020329;28;20569;-69
2023/03/14 06:26:02;;;;;;;11.50;4.67;;;;;;;;;;5028541;28;20172;-69
2023/03/14 06:28:28;;;;;;;9.30;4.27;;;;;;;;;;5025042;28;20219;-69
2023/03/14 06:30:53;;;;;;;10.67;4.40;;;;;;;;;;5024034;28;20188;-68
2023/03/14 06:33:18;;;;;;;14.60;4.70;;;;;;;;;;5021774;28;20241;-69
2023/03/14 06:35:44;;;;;;;9.07;4.00;;;;;;;;;;5025001;28;20193;-69
2023/03/14 06:38:09;;;;;;;10.93;4.40;;;;;;;;;;5036721;28;20251;-69
2023/03/14 06:40:34;;;;;;;6.13;4.20;;;;;;;;;;5024657;28;20706;-69
2023/03/14 06:42:59;;;;;;;6.50;3.03;;;;;;;;;;5018326;28;20218;-69
2023/03/14 06:45:25;;;;;;;7.13;3.17;;;;;;;;;;5021740;28;20641;-69
2023/03/14 06:47:50;;;;;;;6.00;2.77;;;;;;;;;;5020157;28;20212;-70
2023/03/14 06:50:15;;;;;;;7.00;2.60;;;;;;;;;;5026333;28;20600;-69
2023/03/14 06:52:45;;;;;;;8.37;2.60;;;;;;;;;;5029640;28;20397;-70
2023/03/14 06:55:11;;;;;;;8.40;2.93;;;;;;;;;;5033451;28;20272;-69
2023/03/14 06:57:36;;;;;;;3.67;1.80;;;;;;;;;;5027513;28;20450;-70
2023/03/14 07:00:03;;;;;;;6.80;2.53;;;;;;;;;;5032423;28;20218;-69
2023/03/14 07:02:28;;;;;;;7.60;1.87;;;;;;;;;;5033005;28;20203;-69
2023/03/14 07:04:53;;;;;;;4.00;1.17;;;;;;;;;;5030765;28;20830;-69
2023/03/14 07:07:19;;;;;;;7.70;1.50;;;;;;;;;;5029773;28;20195;-70
2023/03/14 07:09:44;;;;;;;9.67;2.00;;;;;;;;;;5025813;28;20653;-70
2023/03/14 07:12:09;;;;;;;7.80;1.57;;;;;;;;;;5030191;28;25066;-70
2023/03/14 07:14:35;;;;;;;8.33;2.07;;;;;;;;;;5032096;28;20176;-70
2023/03/14 07:17:00;;;;;;;9.10;2.00;;;;;;;;;;5024741;28;20588;-71
2023/03/14 07:19:25;;;;;;;9.93;2.00;;;;;;;;;;5031480;28;20168;-72
2023/03/14 07:21:50;;;;;;;9.60;2.80;;;;;;;;;;5034372;28;20268;-72
2023/03/14 07:24:16;;;;;;;10.57;2.00;;;;;;;;;;5029075;28;20652;-72
2023/03/14 07:26:41;;;;;;;12.87;2.20;;;;;;;;;;5024675;28;20185;-72
2023/03/14 07:29:06;;;;;;;10.27;1.97;;;;;;;;;;5027258;28;20220;-72
2023/03/14 07:31:32;;;;;;;9.50;1.80;;;;;;;;;;5032901;28;20180;-72
2023/03/14 07:33:57;;;;;;;7.50;1.23;;;;;;;;;;5031839;28;20182;-71
2023/03/14 07:36:22;;;;;;;8.37;1.67;;;;;;;;;;5034278;28;20726;-70
2023/03/14 07:38:48;;;;;;;9.23;1.73;;;;;;;;;;5018124;28;20292;-70
2023/03/14 07:41:14;;;;;;;7.80;2.07;;;;;;;;;;5028186;28;20605;-70
2023/03/14 07:43:39;;;;;;;8.07;1.13;;;;;;;;;;5028070;28;20206;-71
2023/03/14 07:46:04;;;;;;;5.10;0.93;;;;;;;;;;5032679;28;20657;-70
2023/03/14 07:48:30;;;;;;;7.03;1.20;;;;;;;;;;5031105;28;20691;-70
2023/03/14 07:50:55;;;;;;;2.70;0.80;;;;;;;;;;5033685;28;20179;-71
2023/03/14 07:53:21;;;;;;;2.03;0.60;;;;;;;;;;5032848;28;20185;-70
2023/03/14 07:55:47;;;;;;;2.83;0.70;;;;;;;;;;5033423;28;20183;-70
2023/03/14 07:58:12;;;;;;;1.60;0.70;;;;;;;;;;5028326;28;20202;-73
2023/03/14 08:00:38;;;;;;;2.30;0.67;;;;;;;;;;5029292;28;20441;-70
2023/03/14 08:03:03;;;;;;;1.30;0.53;;;;;;;;;;5033169;28;20575;-70
2023/03/14 08:05:28;;;;;;;1.90;0.60;;;;;;;;;;5032267;28;20177;-71
2023/03/14 08:07:54;;;;;;;3.80;0.70;;;;;;;;;;5030717;28;20679;-71
2023/03/14 08:10:22;;;;;;;1.03;0.60;;;;;;;;;;5033116;28;20183;-71
2023/03/14 08:12:57;;;;;;;4.20;0.90;;;;;;;;;;5027736;28;20740;-70
2023/03/14 08:15:23;;;;;;;4.33;1.33;;;;;;;;;;5035881;28;20438;-71
2023/03/14 08:17:52;;;;;;;3.50;0.77;;;;;;;;;;5023585;28;20512;-71
2023/03/14 08:20:18;;;;;;;3.87;0.90;;;;;;;;;;5035631;28;20270;-72
2023/03/14 08:22:43;;;;;;;3.33;0.80;;;;;;;;;;5037776;28;20546;-72
2023/03/14 08:25:08;;;;;;;2.43;0.77;;;;;;;;;;5027629;28;20188;-72
2023/03/14 08:27:34;;;;;;;2.27;0.80;;;;;;;;;;5040203;28;20360;-72
2023/03/14 08:29:59;;;;;;;2.30;0.83;;;;;;;;;;5026505;28;20176;-72
2023/03/14 08:32:24;;;;;;;4.27;0.80;;;;;;;;;;5033812;28;20713;-72
2023/03/14 08:34:50;;;;;;;2.13;0.73;;;;;;;;;;5031201;28;20205;-72
2023/03/14 08:37:15;;;;;;;3.67;0.90;;;;;;;;;;5037003;28;20200;-73
2023/03/14 08:39:40;;;;;;;2.37;0.67;;;;;;;;;;5032164;28;25056;-72
2023/03/14 08:42:06;;;;;;;3.60;0.70;;;;;;;;;;5031220;28;21665;-71
2023/03/14 08:44:31;;;;;;;2.40;0.97;;;;;;;;;;5031811;28;20245;-71
2023/03/14 08:46:56;;;;;;;4.60;0.90;;;;;;;;;;5032846;28;25093;-71
2023/03/14 08:49:21;;;;;;;6.30;1.20;;;;;;;;;;5025476;28;20355;-71
2023/03/14 08:51:47;;;;;;;3.97;1.90;;;;;;;;;;5033507;28;20571;-71
2023/03/14 08:54:12;;;;;;;4.60;0.90;;;;;;;;;;5029461;28;20237;-71
2023/03/14 08:56:38;;;;;;;3.83;1.03;;;;;;;;;;5034759;28;20552;-71
2023/03/14 08:59:03;;;;;;;3.83;1.13;;;;;;;;;;5020538;28;20208;-72
2023/03/14 09:01:28;;;;;;;7.00;1.50;;;;;;;;;;5023172;28;25076;-71
2023/03/14 09:03:54;;;;;;;8.57;1.20;;;;;;;;;;5030714;28;20243;-71
2023/03/14 09:06:19;;;;;;;4.27;0.97;;;;;;;;;;5031918;28;20650;-71
2023/03/14 09:08:45;;;;;;;6.20;1.17;;;;;;;;;;5024351;28;20204;-71
2023/03/14 09:11:10;;;;;;;9.20;2.07;;;;;;;;;;5025968;28;20190;-71
2023/03/14 09:13:36;;;;;;;7.83;2.00;;;;;;;;;;5020539;28;25098;-71
2023/03/14 09:16:01;;;;;;;8.73;1.70;;;;;;;;;;5024140;28;20208;-71
2023/03/14 09:18:26;;;;;;;9.63;1.83;;;;;;;;;;5024310;28;20262;-71
2023/03/14 09:20:52;;;;;;;8.37;3.30;;;;;;;;;;5028753;28;20217;-71
2023/03/14 09:23:17;;;;;;;6.53;1.80;;;;;;;;;;5027583;28;20249;-72
2023/03/14 09:25:42;;;;;;;12.60;2.13;;;;;;;;;;5031163;28;20188;-71
2023/03/14 09:28:08;;;;;;;13.80;2.13;;;;;;;;;;5020890;28;20223;-71
2023/03/14 09:30:33;;;;;;;16.10;2.27;;;;;;;;;;5031184;28;20196;-71
2023/03/14 09:32:58;;;;;;;9.27;2.30;;;;;;;;;;5034830;28;20271;-72
2023/03/14 09:35:24;;;;;;;12.20;2.47;;;;;;;;;;5031580;28;20589;-71
2023/03/14 09:37:49;;;;;;;8.30;2.50;;;;;;;;;;5017700;28;21156;-71
2023/03/14 09:40:16;;;;;;;8.13;2.03;;;;;;;;;;5030100;28;20193;-71
2023/03/14 09:42:41;;;;;;;12.50;2.50;;;;;;;;;;5016192;28;20574;-71
2023/03/14 09:45:11;;;;;;;12.67;2.70;;;;;;;;;;5029491;28;20440;-71
2023/03/14 09:47:37;;;;;;;15.63;2.70;;;;;;;;;;5030547;28;20217;-71
2023/03/14 09:50:03;;;;;;;16.87;3.10;;;;;;;;;;5024715;28;20440;-71
2023/03/14 09:52:32;;;;;;;18.20;5.40;;;;;;;;;;5031478;28;20172;-71
2023/03/14 09:55:05;;;;;;;20.03;3.83;;;;;;;;;;5033461;28;20427;-71
2023/03/14 09:57:33;;;;;;;16.27;3.40;;;;;;;;;;5026791;28;25104;-72
2023/03/14 10:00:05;;;;;;;13.50;2.90;;;;;;;;;;5036234;28;20435;-71
2023/03/14 10:02:34;;;;;;;17.60;3.20;;;;;;;;;;5020096;28;20434;-71
2023/03/14 10:05:00;;;;;;;17.13;3.10;;;;;;;;;;5029766;28;20641;-71
2023/03/14 10:07:28;;;;;;;18.93;3.73;;;;;;;;;;5031347;28;20451;-72
2023/03/14 10:09:53;;;;;;;12.37;2.73;;;;;;;;;;5032875;28;20667;-72
2023/03/14 10:12:19;;;;;;;12.50;3.23;;;;;;;;;;5030736;28;25119;-72
2023/03/14 10:14:49;;;;;;;14.47;3.90;;;;;;;;;;5029160;28;20199;-72
2023/03/14 10:17:16;;;;;;;18.17;3.60;;;;;;;;;;5045858;28;20750;-72
2023/03/14 10:20:11;;;;;;;14.70;3.50;;;;;;;;;;5030910;28;20507;-72
2023/03/14 10:22:36;;;;;;;10.00;2.93;;;;;;;;;;5022251;28;20478;-72
2023/03/14 10:25:03;;;;;;;17.00;3.57;;;;;;;;;;5033146;28;20851;-72
2023/03/14 10:27:31;;;;;;;12.77;3.10;;;;;;;;;;5027527;28;20196;-71
2023/03/14 10:29:58;;;;;;;10.40;2.37;;;;;;;;;;5025355;28;25166;-71
2023/03/14 10:32:28;;;;;;;12.73;2.90;;;;;;;;;;5030814;28;20446;-71
2023/03/14 10:35:05;;;;;;;13.47;2.57;;;;;;;;;;5027146;28;20430;-71
2023/03/14 10:37:30;;;;;;;15.63;3.00;;;;;;;;;;5026035;28;21028;-71
2023/03/14 10:39:58;;;;;;;19.53;3.90;;;;;;;;;;5033919;28;20470;-71
2023/03/14 10:42:28;;;;;;;11.37;3.13;;;;;;;;;;5029844;28;20173;-71
2023/03/14 10:44:58;;;;;;;17.70;3.80;;;;;;;;;;5024994;28;20438;-71
2023/03/14 10:47:24;;;;;;;20.57;2.73;;;;;;;;;;5026525;28;20463;-72
2023/03/14 10:49:50;;;;;;;20.83;3.13;;;;;;;;;;5026115;28;20436;-71
2023/03/14 10:52:22;;;;;;;12.10;2.83;;;;;;;;;;5040368;28;20443;-71
2023/03/14 10:54:48;;;;;;;18.80;3.03;;;;;;;;;;5028634;28;25073;-71
2023/03/14 10:57:14;;;;;;;9.27;2.60;;;;;;;;;;5029015;28;20485;-72
2023/03/14 10:59:41;;;;;;;14.20;2.50;;;;;;;;;;5025430;28;20834;-72
2023/03/14 11:02:15;;;;;;;11.00;2.43;;;;;;;;;;5028002;28;20191;-71
2023/03/14 11:04:43;;;;;;;13.23;2.47;;;;;;;;;;5017464;28;20579;-71
2023/03/14 11:07:11;;;;;;;9.80;2.53;;;;;;;;;;5025511;28;20804;-71
2023/03/14 11:09:41;;;;;;;12.63;2.30;;;;;;;;;;5028401;28;20435;-71
2023/03/14 11:12:32;;;;;;;10.50;2.37;;;;;;;;;;5033843;28;20450;-71
2023/03/14 11:15:01;;;;;;;8.93;2.20;;;;;;;;;;5007843;28;20505;-71
2023/03/14 11:17:27;;;;;;;8.23;1.70;;;;;;;;;;5029193;28;20460;-71
2023/03/14 11:19:55;;;;;;;7.37;1.77;;;;;;;;;;5035357;28;20434;-71
2023/03/14 11:22:21;;;;;;;9.23;2.03;;;;;;;;;;5034852;28;20218;-71
2023/03/14 11:24:53;;;;;;;7.10;1.83;;;;;;;;;;5029983;28;20465;-71
2023/03/14 11:27:23;;;;;;;9.27;2.20;;;;;;;;;;5030785;28;20477;-71
2023/03/14 11:29:56;;;;;;;11.43;2.20;;;;;;;;;;5034207;28;20437;-71
2023/03/14 11:32:40;;;;;;;8.97;1.80;;;;;;;;;;5019217;28;20498;-71
2023/03/14 11:35:16;;;;;;;9.50;1.80;;;;;;;;;;5034008;28;20810;-71
2023/03/14 11:37:52;;;;;;;5.40;1.67;;;;;;;;;;5023324;28;20453;-71
2023/03/14 11:40:22;;;;;;;5.90;1.63;;;;;;;;;;5029773;28;20449;-70
2023/03/14 11:42:54;;;;;;;4.97;1.57;;;;;;;;;;5028623;28;20549;-71
2023/03/14 11:45:25;;;;;;;6.67;1.60;;;;;;;;;;5033688;28;20473;-71
2023/03/14 11:47:54;;;;;;;9.90;2.17;;;;;;;;;;5033547;28;20472;-71
2023/03/14 11:50:24;;;;;;;6.87;1.70;;;;;;;;;;5032578;28;20435;-71
2023/03/14 11:52:58;;;;;;;6.90;1.93;;;;;;;;;;5036086;28;20864;-71
2023/03/14 11:55:30;;;;;;;5.70;1.53;;;;;;;;;;5031349;28;21070;-71
2023/03/14 11:58:00;;;;;;;6.40;1.87;;;;;;;;;;5030499;28;20613;-70
2023/03/14 12:00:25;;;;;;;5.90;1.40;;;;;;;;;;5030889;28;20442;-70
2023/03/14 12:03:20;;;;;;;5.50;1.80;;;;;;;;;;5028916;28;20461;-70
2023/03/14 12:05:57;;;;;;;8.20;1.57;;;;;;;;;;4978549;28;20228;-70
2023/03/14 12:08:25;;;;;;;5.87;1.80;;;;;;;;;;5028660;28;20488;-71
2023/03/14 12:11:14;;;;;;;2.90;1.23;;;;;;;;;;5030542;28;20438;-70
2023/03/14 12:13:40;;;;;;;9.10;1.90;;;;;;;;;;5017629;28;20448;-71
2023/03/14 12:16:23;;;;;;;8.60;2.10;;;;;;;;;;5036443;28;20497;-71
2023/03/14 12:18:49;;;;;;;7.90;1.63;;;;;;;;;;5027226;28;20470;-71
2023/03/14 12:21:14;;;;;;;7.97;2.07;;;;;;;;;;5031729;28;20427;-71
2023/03/14 12:23:44;;;;;;;6.80;2.33;;;;;;;;;;5032992;28;20219;-71
2023/03/14 12:26:12;;;;;;;8.80;1.97;;;;;;;;;;5034222;28;20181;-71
2023/03/14 12:28:39;;;;;;;5.73;1.50;;;;;;;;;;5030632;28;20968;-71
2023/03/14 12:31:23;;;;;;;7.47;1.87;;;;;;;;;;5029185;28;20442;-71
2023/03/14 12:33:48;;;;;;;6.30;1.53;;;;;;;;;;5030062;28;20453;-71
2023/03/14 12:36:31;;;;;;;7.30;2.10;;;;;;;;;;5037209;28;20938;-71
2023/03/14 12:39:19;;;;;;;6.90;1.47;;;;;;;;;;5030991;28;20205;-71
2023/03/14 12:41:48;;;;;;;6.20;1.70;;;;;;;;;;5009969;28;20434;-71
2023/03/14 12:44:28;;;;;;;4.07;1.43;;;;;;;;;;5030632;28;20490;-71
2023/03/14 12:46:53;;;;;;;7.67;1.77;;;;;;;;;;5033984;28;21270;-71
2023/03/14 12:49:19;;;;;;;10.77;2.00;;;;;;;;;;5029149;28;20595;-71
2023/03/14 12:51:44;;;;;;;5.93;1.87;;;;;;;;;;5030805;28;20177;-71
2023/03/14 12:54:22;;;;;;;6.23;1.47;;;;;;;;;;5034060;28;20587;-70
2023/03/14 12:56:55;;;;;;;7.30;1.53;;;;;;;;;;5032319;28;20636;-71
2023/03/14 12:59:29;;;;;;;9.90;1.90;;;;;;;;;;5029313;28;20486;-71
2023/03/14 13:02:00;;;;;;;9.53;1.77;;;;;;;;;;5034221;28;20441;-70
2023/03/14 13:04:46;;;;;;;5.20;1.47;;;;;;;;;;5028098;28;20462;-71
2023/03/14 13:07:12;;;;;;;8.20;2.43;;;;;;;;;;5031961;28;20437;-70
2023/03/14 13:09:57;;;;;;;15.70;1.90;;;;;;;;;;5031299;28;20527;-71
2023/03/14 13:12:27;;;;;;;10.23;1.33;;;;;;;;;;5031989;28;20454;-70
2023/03/14 13:14:53;;;;;;;7.50;1.70;;;;;;;;;;5046872;28;20445;-71
2023/03/14 13:17:26;;;;;;;8.23;2.00;;;;;;;;;;5018581;28;20457;-71
2023/03/14 13:19:56;;;;;;;6.53;1.83;;;;;;;;;;5035196;28;20235;-70
2023/03/14 13:22:27;;;;;;;8.93;2.00;;;;;;;;;;5032195;28;20458;-70
2023/03/14 13:25:12;;;;;;;12.80;1.97;;;;;;;;;;5027773;28;20474;-71
2023/03/14 13:27:38;;;;;;;7.70;1.50;;;;;;;;;;5029413;28;20455;-70
2023/03/14 13:30:32;;;;;;;7.80;2.07;;;;;;;;;;5028268;28;20498;-71
2023/03/14 13:33:03;;;;;;;8.87;1.87;;;;;;;;;;5025916;28;20288;-70
2023/03/14 13:35:29;;;;;;;5.87;1.50;;;;;;;;;;5018305;28;25114;-70
2023/03/14 13:37:56;;;;;;;12.67;2.00;;;;;;;;;;5015312;28;21330;-70
2023/03/14 13:40:26;;;;;;;6.00;1.70;;;;;;;;;;5019546;28;20469;-70
2023/03/14 13:42:59;;;;;;;7.67;3.00;;;;;;;;;;5030645;28;20466;-70
2023/03/14 13:45:24;;;;;;;10.03;1.80;;;;;;;;;;5030797;28;20786;-70
2023/03/14 13:47:51;;;;;;;8.20;1.70;;;;;;;;;;5023745;28;21017;-71
2023/03/14 13:50:17;;;;;;;7.37;1.47;;;;;;;;;;5031065;28;20200;-70
2023/03/14 13:52:43;;;;;;;7.90;1.57;;;;;;;;;;5033952;28;20430;-70
2023/03/14 13:55:14;;;;;;;4.73;1.43;;;;;;;;;;5026029;28;21423;-71
2023/03/14 13:57:47;;;;;;;6.37;1.53;;;;;;;;;;5025042;28;20197;-70
2023/03/14 14:00:20;;;;;;;15.70;2.23;;;;;;;;;;5032255;28;20968;-70
2023/03/14 14:02:45;;;;;;;6.07;1.63;;;;;;;;;;5014067;28;20889;-71
2023/03/14 14:05:11;;;;;;;8.80;1.83;;;;;;;;;;5034597;28;20516;-70
2023/03/14 14:07:37;;;;;;;6.57;1.93;;;;;;;;;;5030614;28;20211;-71
2023/03/14 14:10:04;;;;;;;11.33;1.77;;;;;;;;;;5019303;28;20435;-71
2023/03/14 14:12:32;;;;;;;13.60;1.80;;;;;;;;;;5026002;28;20947;-70
2023/03/14 14:14:57;;;;;;;8.00;1.30;;;;;;;;;;5028282;28;20458;-70
2023/03/14 14:17:41;;;;;;;6.77;1.80;;;;;;;;;;5022623;28;20989;-70
2023/03/14 14:20:08;;;;;;;8.00;1.60;;;;;;;;;;5035109;28;20180;-71
2023/03/14 14:22:33;;;;;;;7.60;2.00;;;;;;;;;;5017343;28;20602;-70
2023/03/14 14:24:59;;;;;;;4.73;1.37;;;;;;;;;;5034356;28;20541;-71
2023/03/14 14:27:34;;;;;;;10.17;1.83;;;;;;;;;;5026027;28;20710;-70
2023/03/14 14:30:23;;;;;;;5.53;2.50;;;;;;;;;;5026535;28;20473;-71
2023/03/14 14:32:49;;;;;;;9.37;1.33;;;;;;;;;;5022996;28;20531;-70
2023/03/14 14:35:22;;;;;;;5.53;1.47;;;;;;;;;;5032884;28;20920;-71
2023/03/14 14:37:47;;;;;;;8.80;1.97;;;;;;;;;;5024816;28;20457;-71